createdAt,value
2018-02-12T00:02:00.272Z,3.55
2018-02-12T00:04:27.733Z,3.59
2018-02-12T00:06:55.168Z,3.60
2018-02-12T00:09:22.605Z,3.63
2018-02-12T00:11:50.046Z,3.53
2018-02-12T00:14:17.505Z,3.50
2018-02-12T00:16:44.948Z,3.51
2018-02-12T00:19:12.373Z,3.49
2018-02-12T00:21:39.799Z,3.49
2018-02-12T00:24:07.220Z,3.53
2018-02-12T00:29:08.370Z,3.47
2018-02-12T00:31:35.779Z,3.55
2018-02-12T00:34:03.222Z,3.49
2018-02-12T00:36:30.665Z,3.43
2018-02-12T00:38:58.089Z,3.46
2018-02-12T00:41:25.511Z,3.33
2018-02-12T00:43:52.955Z,3.39
2018-02-12T00:46:20.400Z,3.34
2018-02-12T00:48:47.883Z,3.11
2018-02-12T00:51:15.293Z,3.00
2018-02-12T00:53:42.738Z,3.02
2018-02-12T00:56:10.165Z,3.02
2018-02-12T00:58:37.580Z,3.10
2018-02-12T01:01:05.010Z,3.09
2018-02-12T01:03:32.424Z,2.93
2018-02-12T01:05:59.836Z,2.92
2018-02-12T01:08:27.260Z,2.93
2018-02-12T01:10:54.675Z,2.98
2018-02-12T01:13:22.100Z,2.89
2018-02-12T01:15:49.519Z,2.96
2018-02-12T01:18:16.952Z,3.03
2018-02-12T01:20:44.409Z,3.10
2018-02-12T01:23:11.821Z,3.02
2018-02-12T01:25:39.255Z,3.10
2018-02-12T01:28:06.693Z,2.98
2018-02-12T01:30:34.136Z,3.03
2018-02-12T01:33:01.588Z,3.06
2018-02-12T01:35:29.001Z,3.08
2018-02-12T01:37:56.434Z,3.09
2018-02-12T01:40:23.912Z,3.12
2018-02-12T01:42:51.342Z,3.14
2018-02-12T01:45:18.774Z,3.06
2018-02-12T01:47:46.188Z,3.12
2018-02-12T01:50:19.416Z,3.04
2018-02-12T01:52:46.869Z,3.06
2018-02-12T01:55:14.364Z,3.08
2018-02-12T01:57:41.800Z,3.19
2018-02-12T02:00:09.254Z,3.19
2018-02-12T02:02:36.670Z,3.15
2018-02-12T02:05:04.092Z,3.22
2018-02-12T02:07:31.514Z,3.18
2018-02-12T02:09:58.951Z,3.11
2018-02-12T02:12:26.372Z,3.01
2018-02-12T02:14:53.831Z,3.01
2018-02-12T02:17:21.280Z,3.04
2018-02-12T02:19:48.690Z,3.04
2018-02-12T02:22:16.138Z,2.95
2018-02-12T02:24:43.571Z,3.05
2018-02-12T02:27:11.053Z,3.12
2018-02-12T02:29:38.501Z,3.05
2018-02-12T02:32:05.942Z,3.03
2018-02-12T02:34:33.372Z,3.09
2018-02-12T02:37:00.837Z,3.04
2018-02-12T02:39:28.267Z,3.06
2018-02-12T02:41:55.682Z,3.13
2018-02-12T02:44:23.122Z,3.11
2018-02-12T02:46:50.548Z,3.16
2018-02-12T02:49:17.964Z,3.16
2018-02-12T02:51:45.434Z,3.04
2018-02-12T02:54:12.935Z,3.09
2018-02-12T02:56:40.346Z,3.06
2018-02-12T02:59:07.764Z,3.12
2018-02-12T03:01:35.192Z,3.05
2018-02-12T03:04:02.669Z,3.03
2018-02-12T03:06:30.105Z,3.04
2018-02-12T03:08:57.539Z,3.15
2018-02-12T03:11:25.016Z,3.27
2018-02-12T03:13:52.421Z,3.27
2018-02-12T03:16:19.872Z,3.16
2018-02-12T03:18:47.280Z,3.16
2018-02-12T03:21:14.724Z,3.24
2018-02-12T03:23:42.184Z,3.20
2018-02-12T03:26:09.597Z,3.18
2018-02-12T03:28:37.020Z,3.24
2018-02-12T03:31:04.461Z,3.24
2018-02-12T03:33:31.916Z,3.23
2018-02-12T03:35:59.327Z,3.23
2018-02-12T03:38:26.779Z,3.22
2018-02-12T03:40:54.206Z,3.19
2018-02-12T03:43:21.652Z,3.20
2018-02-12T03:45:49.116Z,3.22
2018-02-12T03:48:16.549Z,3.20
2018-02-12T03:50:43.964Z,3.32
2018-02-12T03:53:11.428Z,3.34
2018-02-12T03:55:38.889Z,3.28
2018-02-12T03:58:06.299Z,3.25
2018-02-12T04:00:33.709Z,3.21
2018-02-12T04:03:01.141Z,3.17
2018-02-12T04:05:28.605Z,3.13
2018-02-12T04:07:56.025Z,3.12
2018-02-12T04:10:23.460Z,3.15
2018-02-12T04:12:50.929Z,3.13
2018-02-12T04:15:18.387Z,3.16
2018-02-12T04:17:45.883Z,3.22
2018-02-12T04:20:13.316Z,3.20
2018-02-12T04:22:40.740Z,3.12
2018-02-12T04:25:08.160Z,3.15
2018-02-12T04:27:35.604Z,3.19
2018-02-12T04:30:03.005Z,3.17
2018-02-12T04:32:30.444Z,3.15
2018-02-12T04:34:57.872Z,3.10
2018-02-12T04:37:25.284Z,3.16
2018-02-12T04:39:52.755Z,3.19
2018-02-12T04:42:20.188Z,3.19
2018-02-12T04:44:47.658Z,3.23
2018-02-12T04:47:15.076Z,3.23
2018-02-12T04:49:42.511Z,3.25
2018-02-12T04:52:09.936Z,3.25
2018-02-12T04:54:37.376Z,3.17
2018-02-12T04:57:04.789Z,3.03
2018-02-12T04:59:32.217Z,3.04
2018-02-12T05:01:59.640Z,3.03
2018-02-12T05:04:27.107Z,3.05
2018-02-12T05:06:54.577Z,3.06
2018-02-12T05:09:22.020Z,3.13
2018-02-12T05:11:49.482Z,3.12
2018-02-12T05:14:16.917Z,3.13
2018-02-12T05:16:44.400Z,3.06
2018-02-12T05:19:11.816Z,3.05
2018-02-12T05:21:39.244Z,3.11
2018-02-12T05:24:06.672Z,3.07
2018-02-12T05:26:34.101Z,3.00
2018-02-12T05:29:01.576Z,3.01
2018-02-12T05:31:29.009Z,2.96
2018-02-12T05:33:56.444Z,3.02
2018-02-12T05:36:23.902Z,3.07
2018-02-12T05:38:51.324Z,3.07
2018-02-12T05:41:18.752Z,3.01
2018-02-12T05:43:46.165Z,3.02
2018-02-12T05:46:13.592Z,2.82
2018-02-12T05:48:41.024Z,2.80
2018-02-12T05:51:08.472Z,2.76
2018-02-12T05:53:35.924Z,2.81
2018-02-12T05:56:03.344Z,2.86
2018-02-12T05:58:30.809Z,2.93
2018-02-12T06:00:58.228Z,3.02
2018-02-12T06:03:25.676Z,2.94
2018-02-12T06:05:56.582Z,2.94
2018-02-12T06:08:23.996Z,2.93
2018-02-12T06:10:51.443Z,2.96
2018-02-12T06:13:18.893Z,2.96
2018-02-12T06:15:46.328Z,2.90
2018-02-12T06:18:13.743Z,2.86
2018-02-12T06:20:41.152Z,2.92
2018-02-12T06:23:08.582Z,2.90
2018-02-12T06:25:36.071Z,2.75
2018-02-12T06:28:03.464Z,2.78
2018-02-12T06:30:30.896Z,2.79
2018-02-12T06:32:58.328Z,2.82
2018-02-12T06:35:25.797Z,2.83
2018-02-12T06:37:53.204Z,2.76
2018-02-12T06:40:20.644Z,2.76
2018-02-12T06:42:48.108Z,2.80
2018-02-12T06:45:15.599Z,2.83
2018-02-12T06:47:43.044Z,2.88
2018-02-12T06:50:10.493Z,2.82
2018-02-12T06:52:37.917Z,2.82
2018-02-12T06:55:05.340Z,2.78
2018-02-12T06:57:32.816Z,2.74
2018-02-12T07:00:00.345Z,2.80
2018-02-12T07:02:27.837Z,2.72
2018-02-12T07:04:55.252Z,2.73
2018-02-12T07:07:22.710Z,2.73
2018-02-12T07:09:50.144Z,2.78
2018-02-12T07:12:17.691Z,2.80
2018-02-12T07:14:45.349Z,2.84
2018-02-12T07:17:12.789Z,2.84
2018-02-12T07:19:40.213Z,2.90
2018-02-12T07:22:07.645Z,2.79
2018-02-12T07:24:35.127Z,2.81
2018-02-12T07:27:02.540Z,2.81
2018-02-12T07:29:32.756Z,2.93
2018-02-12T07:32:00.226Z,3.00
2018-02-12T07:34:27.665Z,2.92
2018-02-12T07:36:55.112Z,3.02
2018-02-12T07:39:22.610Z,3.10
2018-02-12T07:41:50.061Z,3.06
2018-02-12T07:44:17.481Z,3.03
2018-02-12T07:46:44.901Z,3.14
2018-02-12T07:49:12.333Z,3.12
2018-02-12T07:51:39.909Z,3.12
2018-02-12T07:54:07.387Z,3.21
2018-02-12T07:56:34.797Z,3.09
2018-02-12T07:59:02.242Z,3.16
2018-02-12T08:01:29.758Z,3.16
2018-02-12T08:03:57.180Z,3.17
2018-02-12T08:06:24.666Z,3.17
2018-02-12T08:08:52.079Z,3.23
2018-02-12T08:11:19.521Z,3.32
2018-02-12T08:13:47.636Z,3.19
2018-02-12T08:16:15.666Z,3.20
2018-02-12T08:18:43.104Z,3.30
2018-02-12T08:21:10.598Z,3.22
2018-02-12T08:23:38.024Z,3.31
2018-02-12T08:26:05.504Z,3.41
2018-02-12T08:28:32.940Z,3.41
2018-02-12T08:31:00.370Z,3.51
2018-02-12T08:33:27.812Z,3.53
2018-02-12T08:35:55.289Z,3.53
2018-02-12T08:38:22.784Z,3.53
2018-02-12T08:40:50.228Z,3.67
2018-02-12T08:43:17.653Z,3.76
2018-02-12T08:45:45.170Z,3.70
2018-02-12T08:48:12.600Z,3.71
2018-02-12T08:50:40.086Z,3.64
2018-02-12T08:53:07.503Z,3.57
2018-02-12T08:55:34.928Z,3.63
2018-02-12T08:58:02.404Z,3.77
2018-02-12T09:00:29.844Z,3.67
2018-02-12T09:02:57.332Z,3.69
2018-02-12T09:05:24.738Z,3.66
2018-02-12T09:07:52.184Z,3.66
2018-02-12T09:10:19.588Z,3.78
2018-02-12T09:12:47.008Z,3.89
2018-02-12T09:15:14.452Z,3.91
2018-02-12T09:17:41.894Z,3.88
2018-02-12T09:20:09.349Z,3.96
2018-02-12T09:22:37.750Z,3.98
2018-02-12T09:25:05.169Z,4.08
2018-02-12T09:27:32.667Z,4.02
2018-02-12T09:30:00.121Z,4.03
2018-02-12T09:32:27.588Z,4.12
2018-02-12T09:34:55.133Z,4.14
2018-02-12T09:37:22.538Z,3.99
2018-02-12T09:39:50.040Z,4.05
2018-02-12T09:42:17.470Z,4.13
2018-02-12T09:44:44.919Z,4.19
2018-02-12T09:47:12.404Z,4.19
2018-02-12T09:49:39.833Z,4.31
2018-02-12T09:52:07.311Z,4.50
2018-02-12T09:54:34.701Z,4.52
2018-02-12T09:57:02.121Z,4.46
2018-02-12T09:59:29.550Z,4.54
2018-02-12T10:01:56.980Z,4.54
2018-02-12T10:04:24.400Z,4.48
2018-02-12T10:06:51.812Z,4.51
2018-02-12T10:09:19.229Z,4.51
2018-02-12T10:11:46.664Z,4.45
2018-02-12T10:14:14.086Z,4.56
2018-02-12T10:16:41.492Z,4.54
2018-02-12T10:19:09.286Z,4.42
2018-02-12T10:21:36.693Z,4.40
2018-02-12T10:24:04.109Z,4.30
2018-02-12T10:26:31.527Z,4.34
2018-02-12T10:28:58.937Z,4.49
2018-02-12T10:31:26.352Z,4.60
2018-02-12T10:33:53.792Z,4.73
2018-02-12T10:36:21.249Z,4.83
2018-02-12T10:38:48.661Z,4.78
2018-02-12T10:41:16.159Z,4.75
2018-02-12T10:43:43.622Z,4.83
2018-02-12T10:46:11.076Z,4.85
2018-02-12T10:48:38.510Z,4.90
2018-02-12T10:51:05.995Z,4.98
2018-02-12T10:53:33.419Z,5.12
2018-02-12T10:56:00.865Z,5.15
2018-02-12T10:58:28.337Z,5.17
2018-02-12T11:00:55.749Z,5.09
2018-02-12T11:03:23.156Z,4.91
2018-02-12T11:05:50.570Z,4.72
2018-02-12T11:08:18.050Z,4.70
2018-02-12T11:10:45.462Z,4.61
2018-02-12T11:13:12.885Z,4.62
2018-02-12T11:15:40.304Z,4.57
2018-02-12T11:18:07.725Z,4.58
2018-02-12T11:20:35.213Z,4.56
2018-02-12T11:23:02.629Z,4.66
2018-02-12T11:25:30.092Z,4.65
2018-02-12T11:27:57.532Z,4.80
2018-02-12T11:30:24.986Z,5.02
2018-02-12T11:32:52.418Z,5.04
2018-02-12T11:35:19.828Z,5.02
2018-02-12T11:37:47.281Z,4.91
2018-02-12T11:40:14.749Z,4.92
2018-02-12T11:42:42.154Z,5.09
2018-02-12T11:45:09.568Z,5.65
2018-02-12T11:47:36.992Z,6.11
2018-02-12T11:50:04.402Z,6.53
2018-02-12T11:52:35.263Z,7.00
2018-02-12T11:55:02.632Z,7.28
2018-02-12T11:57:30.064Z,7.48
2018-02-12T11:59:57.481Z,7.62
2018-02-12T12:02:24.969Z,7.57
2018-02-12T12:04:52.383Z,7.46
2018-02-12T12:07:19.805Z,7.07
2018-02-12T12:09:47.220Z,7.13
2018-02-12T12:12:14.621Z,7.55
2018-02-12T12:14:42.032Z,7.73
2018-02-12T12:17:09.677Z,7.71
2018-02-12T12:19:37.076Z,7.95
2018-02-12T12:22:04.505Z,8.04
2018-02-12T12:24:31.976Z,7.82
2018-02-12T12:26:59.398Z,8.01
2018-02-12T12:29:26.848Z,8.25
2018-02-12T12:31:54.268Z,8.11
2018-02-12T12:34:22.323Z,7.79
2018-02-12T12:36:49.712Z,7.22
2018-02-12T12:39:17.140Z,6.86
2018-02-12T12:41:44.569Z,6.75
2018-02-12T12:44:12.096Z,7.05
2018-02-12T12:46:39.556Z,7.02
2018-02-12T12:49:06.980Z,6.75
2018-02-12T12:51:34.457Z,6.78
2018-02-12T12:54:01.887Z,6.63
2018-02-12T12:56:29.321Z,6.61
2018-02-12T12:58:56.736Z,6.73
2018-02-12T13:01:24.188Z,6.65
2018-02-12T13:03:51.597Z,6.98
2018-02-12T13:06:24.752Z,7.11
2018-02-12T13:08:52.157Z,7.17
2018-02-12T13:11:19.602Z,7.31
2018-02-12T13:13:47.019Z,7.23
2018-02-12T13:16:14.438Z,6.83
2018-02-12T13:18:41.880Z,6.95
2018-02-12T13:21:09.293Z,7.41
2018-02-12T13:23:36.741Z,7.69
2018-02-12T13:26:04.144Z,7.67
2018-02-12T13:28:31.558Z,7.61
2018-02-12T13:30:58.995Z,7.78
2018-02-12T13:33:26.400Z,7.68
2018-02-12T13:35:53.853Z,7.19
2018-02-12T13:38:21.250Z,7.06
2018-02-12T13:40:48.658Z,6.95
2018-02-12T13:43:16.073Z,7.25
2018-02-12T13:45:43.483Z,7.34
2018-02-12T13:48:10.917Z,7.10
2018-02-12T13:50:38.325Z,7.15
2018-02-12T13:53:05.748Z,7.02
2018-02-12T13:55:33.165Z,7.05
2018-02-12T13:58:00.573Z,6.95
2018-02-12T14:00:27.984Z,7.12
2018-02-12T14:02:55.394Z,7.12
2018-02-12T14:05:22.852Z,6.93
2018-02-12T14:07:50.276Z,7.26
2018-02-12T14:10:17.705Z,7.42
2018-02-12T14:12:45.425Z,7.69
2018-02-12T14:15:12.880Z,7.75
2018-02-12T14:17:40.309Z,7.85
2018-02-12T14:20:07.724Z,7.64
2018-02-12T14:22:35.184Z,7.59
2018-02-12T14:25:13.065Z,7.34
2018-02-12T14:27:40.509Z,7.31
2018-02-12T14:30:13.501Z,7.25
2018-02-12T14:32:40.943Z,7.07
2018-02-12T14:35:08.380Z,6.79
2018-02-12T14:37:35.857Z,6.52
2018-02-12T14:40:03.288Z,6.51
2018-02-12T14:42:31.204Z,6.31
2018-02-12T14:44:58.682Z,6.19
2018-02-12T14:47:26.080Z,6.19
2018-02-12T14:49:53.485Z,6.05
2018-02-12T14:52:20.953Z,5.87
2018-02-12T14:54:48.377Z,5.72
2018-02-12T14:57:15.799Z,5.70
2018-02-12T14:59:43.253Z,5.46
2018-02-12T15:02:10.672Z,5.02
2018-02-12T15:04:38.102Z,4.82
2018-02-12T15:07:05.549Z,4.59
2018-02-12T15:09:32.951Z,4.18
2018-02-12T15:12:00.414Z,4.00
2018-02-12T15:14:27.839Z,3.81
2018-02-12T15:16:55.304Z,3.70
2018-02-12T15:19:22.777Z,3.69
2018-02-12T15:21:50.217Z,3.66
2018-02-12T15:24:17.645Z,3.79
2018-02-12T15:26:48.875Z,3.84
2018-02-12T15:29:21.592Z,3.94
2018-02-12T15:31:52.755Z,4.00
2018-02-12T15:37:19.104Z,3.92
2018-02-12T15:39:47.109Z,3.80
2018-02-12T15:42:14.532Z,3.92
2018-02-12T15:44:41.980Z,4.07
2018-02-12T15:47:09.591Z,4.10
2018-02-12T15:49:37.054Z,4.14
2018-02-12T15:52:05.326Z,3.96
2018-02-12T15:54:32.772Z,3.92
2018-02-12T15:57:00.199Z,3.87
2018-02-12T15:59:27.629Z,3.80
2018-02-12T16:01:55.136Z,3.62
2018-02-12T16:04:22.589Z,3.50
2018-02-12T16:06:50.040Z,3.45
2018-02-12T16:09:17.504Z,3.42
2018-02-12T16:11:44.919Z,3.38
2018-02-12T16:14:12.372Z,3.36
2018-02-12T16:16:39.818Z,3.30
2018-02-12T16:19:07.327Z,3.30
2018-02-12T16:21:34.759Z,3.24
2018-02-12T16:24:02.200Z,3.24
2018-02-12T16:26:29.683Z,3.14
2018-02-12T16:28:57.128Z,3.01
2018-02-12T16:31:24.627Z,2.97
2018-02-12T16:33:52.029Z,2.97
2018-02-12T16:36:19.472Z,2.94
2018-02-12T16:38:46.912Z,2.85
2018-02-12T16:41:14.353Z,2.81
2018-02-12T16:43:41.817Z,2.65
2018-02-12T16:46:09.229Z,2.74
2018-02-12T16:48:36.676Z,2.85
2018-02-12T16:51:04.131Z,2.86
2018-02-12T16:53:31.558Z,2.85
2018-02-12T16:55:59.003Z,2.85
2018-02-12T16:58:26.437Z,2.74
2018-02-12T17:00:53.857Z,2.70
2018-02-12T17:03:25.165Z,2.66
2018-02-12T17:05:52.608Z,2.70
2018-02-12T17:08:20.060Z,2.71
2018-02-12T17:10:47.474Z,2.74
2018-02-12T17:13:14.908Z,2.75
2018-02-12T17:15:42.359Z,2.75
2018-02-12T17:18:09.768Z,2.78
2018-02-12T17:20:37.252Z,2.70
2018-02-12T17:23:04.673Z,2.65
2018-02-12T17:25:32.107Z,2.60
2018-02-12T17:27:59.528Z,2.54
2018-02-12T17:30:26.964Z,2.50
2018-02-12T17:32:54.467Z,2.47
2018-02-12T17:35:21.920Z,2.42
2018-02-12T17:37:49.340Z,2.45
2018-02-12T17:40:16.803Z,2.46
2018-02-12T17:42:44.208Z,2.39
2018-02-12T17:45:15.422Z,2.37
2018-02-12T17:47:42.833Z,2.39
2018-02-12T17:50:10.282Z,2.38
2018-02-12T17:52:37.696Z,2.32
2018-02-12T17:55:05.169Z,2.28
2018-02-12T17:57:32.639Z,2.24
2018-02-12T18:00:00.694Z,2.21
2018-02-12T18:02:28.150Z,2.14
2018-02-12T18:04:55.566Z,2.09
2018-02-12T18:07:22.984Z,2.08
2018-02-12T18:09:50.556Z,2.14
2018-02-12T18:12:18.026Z,2.11
2018-02-12T18:14:46.724Z,2.08
2018-02-12T18:17:15.564Z,2.06
2018-02-12T18:19:42.989Z,2.06
2018-02-12T18:22:10.413Z,2.06
2018-02-12T18:24:37.865Z,2.04
2018-02-12T18:27:05.284Z,2.01
2018-02-12T18:29:32.728Z,1.98
2018-02-12T18:32:00.156Z,1.92
2018-02-12T18:34:27.651Z,1.89
2018-02-12T18:36:55.052Z,1.93
2018-02-12T18:39:22.563Z,1.96
2018-02-12T18:41:50.148Z,1.93
2018-02-12T18:44:17.554Z,2.01
2018-02-12T18:46:44.972Z,2.02
2018-02-12T18:49:12.396Z,1.97
2018-02-12T18:51:39.833Z,1.93
2018-02-12T18:54:07.256Z,1.90
2018-02-12T18:56:34.680Z,1.88
2018-02-12T18:59:02.105Z,1.84
2018-02-12T19:01:29.527Z,1.85
2018-02-12T19:04:00.614Z,1.90
2018-02-12T19:06:28.032Z,1.96
2018-02-12T19:08:55.669Z,2.03
2018-02-12T19:11:23.103Z,2.03
2018-02-12T19:13:50.520Z,1.98
2018-02-12T19:16:17.966Z,1.97
2018-02-12T19:18:45.769Z,1.93
2018-02-12T19:21:13.194Z,1.92
2018-02-12T19:23:40.648Z,1.86
2018-02-12T19:26:08.050Z,1.83
2018-02-12T19:28:41.997Z,1.78
2018-02-12T19:31:10.397Z,1.71
2018-02-12T19:33:37.821Z,1.67
2018-02-12T19:36:08.393Z,1.58
2018-02-12T19:38:35.870Z,1.51
2018-02-12T19:41:03.341Z,1.47
2018-02-12T19:43:30.762Z,1.46
2018-02-12T19:45:58.190Z,1.46
2018-02-12T19:48:25.605Z,1.44
2018-02-12T19:50:53.025Z,1.52
2018-02-12T19:53:20.468Z,1.51
2018-02-12T19:55:47.884Z,1.53
2018-02-12T19:58:15.303Z,1.49
2018-02-12T20:00:42.867Z,1.48
2018-02-12T20:03:10.283Z,1.43
2018-02-12T20:05:37.728Z,1.41
2018-02-12T20:08:05.158Z,1.40
2018-02-12T20:10:32.611Z,1.38
2018-02-12T20:13:00.000Z,1.33
2018-02-12T20:15:27.812Z,1.29
2018-02-12T20:17:55.276Z,1.28
2018-02-12T20:20:22.700Z,1.28
2018-02-12T20:22:50.119Z,1.24
2018-02-12T20:25:17.580Z,1.22
2018-02-12T20:27:44.992Z,1.24
2018-02-12T20:30:12.458Z,1.24
2018-02-12T20:32:39.860Z,1.24
2018-02-12T20:35:07.279Z,1.28
2018-02-12T20:37:35.140Z,1.26
2018-02-12T20:40:02.533Z,1.28
2018-02-12T20:42:30.008Z,1.20
2018-02-12T20:44:57.447Z,1.21
2018-02-12T20:47:26.894Z,1.25
2018-02-12T20:49:54.325Z,1.22
2018-02-12T20:52:21.748Z,1.20
2018-02-12T20:54:49.272Z,1.21
2018-02-12T20:57:16.708Z,1.14
2018-02-12T20:59:44.144Z,1.11
2018-02-12T21:02:11.564Z,1.13
2018-02-12T21:04:38.986Z,1.13
2018-02-12T21:07:06.412Z,1.09
2018-02-12T21:09:33.869Z,1.05
2018-02-12T21:12:01.292Z,1.07
2018-02-12T21:14:28.716Z,1.08
2018-02-12T21:16:56.166Z,1.04
2018-02-12T21:19:23.584Z,1.02
2018-02-12T21:21:51.489Z,1.01
2018-02-12T21:24:18.913Z,0.97
2018-02-12T21:26:46.359Z,0.95
2018-02-12T21:29:17.695Z,0.91
2018-02-12T21:31:45.115Z,0.92
2018-02-12T21:34:12.535Z,0.95
2018-02-12T21:36:39.981Z,0.95
2018-02-12T21:39:07.778Z,0.96
2018-02-12T21:41:35.215Z,0.96
2018-02-12T21:44:02.704Z,0.99
2018-02-12T21:46:30.124Z,0.94
2018-02-12T21:48:57.556Z,0.92
2018-02-12T21:51:25.007Z,0.86
2018-02-12T21:53:52.417Z,0.91
2018-02-12T21:56:20.114Z,0.88
2018-02-12T21:58:47.544Z,0.96
2018-02-12T22:01:14.960Z,0.99
2018-02-12T22:03:42.780Z,0.89
2018-02-12T22:06:10.198Z,0.95
2018-02-12T22:08:37.631Z,0.85
2018-02-12T22:11:05.065Z,0.95
2018-02-12T22:13:32.494Z,0.96
2018-02-12T22:15:59.909Z,1.00
2018-02-12T22:18:40.949Z,0.97
2018-02-12T22:21:08.384Z,1.01
2018-02-12T22:23:35.808Z,0.93
2018-02-12T22:26:03.251Z,0.91
2018-02-12T22:28:30.714Z,0.95
2018-02-12T22:30:58.157Z,0.96
2018-02-12T22:33:25.575Z,0.94
2018-02-12T22:35:53.042Z,1.00
2018-02-12T22:38:20.457Z,0.99
2018-02-12T22:40:47.886Z,0.99
2018-02-12T22:43:15.317Z,0.95
2018-02-12T22:45:42.761Z,0.95
2018-02-12T22:48:10.170Z,0.95
2018-02-12T22:50:37.581Z,0.98
2018-02-12T22:53:05.001Z,0.97
2018-02-12T22:55:32.429Z,1.01
2018-02-12T22:57:59.878Z,0.98
2018-02-12T23:00:27.329Z,0.99
2018-02-12T23:02:54.745Z,1.03
2018-02-12T23:05:22.153Z,1.02
2018-02-12T23:07:49.603Z,0.95
2018-02-12T23:10:17.116Z,1.01
2018-02-12T23:12:44.562Z,0.98
2018-02-12T23:15:17.488Z,0.99
2018-02-12T23:17:44.922Z,0.98
2018-02-12T23:20:12.330Z,0.99
2018-02-12T23:22:39.752Z,0.98
2018-02-12T23:25:07.184Z,0.98
2018-02-12T23:27:34.633Z,0.93
2018-02-12T23:30:02.053Z,0.94
2018-02-12T23:32:29.461Z,0.91
2018-02-12T23:34:56.877Z,0.98
2018-02-12T23:37:24.305Z,1.00
2018-02-12T23:39:51.972Z,1.01
2018-02-12T23:42:19.423Z,1.00
2018-02-12T23:44:46.837Z,1.04
2018-02-12T23:47:14.257Z,1.00
2018-02-12T23:49:41.687Z,0.97
2018-02-12T23:52:09.177Z,0.99
2018-02-12T23:54:36.625Z,1.01
2018-02-12T23:57:04.045Z,1.01
2018-02-12T23:59:31.485Z,0.98
